Aviation Digital Data Service (ADDS)

Output produced by METARs form (2345 UTC 26 March 2015)
found at http://aviationweather.gov/adds/metars/
 
KGMU 262320Z 2700/2724 22007KT P6SM SCT060 BKN250 
     FM270400 23007KT P6SM -SHRA BKN050 
     FM270500 25005KT P6SM -SHRA VCTS OVC045CB 
     FM270800 32005KT 4SM -SHRA OVC040 
     FM271000 35007KT P6SM -SHRA OVC040 
     FM271100 36008KT P6SM OVC045